createdAt,value
2024-03-12T00:00:58.189Z,20.7977
2024-03-12T00:01:59.949Z,20.8053
2024-03-12T00:03:01.779Z,20.8117
2024-03-12T00:04:03.726Z,20.8097
2024-03-12T00:05:05.465Z,20.8113
2024-03-12T00:06:07.271Z,20.8205
2024-03-12T00:07:09.220Z,20.8181
2024-03-12T00:08:10.941Z,20.8234
2024-03-12T00:09:12.776Z,20.8255
2024-03-12T00:10:14.601Z,20.8325
2024-03-12T00:11:16.492Z,20.8364
2024-03-12T00:12:18.273Z,20.8448
2024-03-12T00:13:20.114Z,20.8481
2024-03-12T00:14:21.988Z,20.8450
2024-03-12T00:15:23.853Z,20.8479
2024-03-12T00:16:25.635Z,20.8546
2024-03-12T00:17:27.563Z,20.8557
2024-03-12T00:18:29.311Z,20.8680
2024-03-12T00:19:31.141Z,20.8709
2024-03-12T00:20:32.946Z,20.8748
2024-03-12T00:21:34.858Z,20.8779
2024-03-12T00:22:36.614Z,20.8744
2024-03-12T00:23:38.480Z,20.8807
2024-03-12T00:24:40.291Z,20.8853
2024-03-12T00:25:42.202Z,20.8774
2024-03-12T00:26:46.470Z,20.8937
2024-03-12T00:27:45.834Z,20.8924
2024-03-12T00:28:47.678Z,20.9023
2024-03-12T00:29:49.518Z,20.9019
2024-03-12T00:30:51.344Z,20.9015
2024-03-12T00:31:53.178Z,20.9062
2024-03-12T00:32:55.006Z,20.9072
2024-03-12T00:33:56.914Z,20.9154
2024-03-12T00:34:58.637Z,20.9157
2024-03-12T00:36:00.549Z,20.9132
2024-03-12T00:37:02.406Z,20.9154
2024-03-12T00:38:04.167Z,20.9181
2024-03-12T00:39:05.974Z,20.9198
2024-03-12T00:40:07.937Z,20.9239
2024-03-12T00:41:09.672Z,20.9278
2024-03-12T00:42:11.502Z,20.9337
2024-03-12T00:43:13.486Z,20.9294
2024-03-12T00:44:15.211Z,20.9309
2024-03-12T00:45:17.081Z,20.9333
2024-03-12T00:46:18.966Z,20.9428
2024-03-12T00:47:20.687Z,20.9413
2024-03-12T00:48:22.585Z,20.9528
2024-03-12T00:49:24.362Z,20.9454
2024-03-12T00:50:26.219Z,20.9500
2024-03-12T00:51:28.078Z,20.9578
2024-03-12T00:52:29.888Z,20.9539
2024-03-12T00:53:31.746Z,20.9549
2024-03-12T00:54:33.589Z,20.9586
2024-03-12T00:55:35.411Z,20.9633
2024-03-12T00:56:37.241Z,20.9629
2024-03-12T00:57:39.066Z,20.9610
2024-03-12T00:58:40.898Z,20.9686
2024-03-12T00:59:42.728Z,20.9707
2024-03-12T01:00:44.704Z,20.9715
2024-03-12T01:01:46.408Z,20.9767
2024-03-12T01:02:48.267Z,20.9752
2024-03-12T01:03:50.075Z,20.9754
2024-03-12T01:04:51.916Z,20.9838
2024-03-12T01:05:53.737Z,20.9818
2024-03-12T01:06:55.623Z,20.9760
2024-03-12T01:07:57.412Z,20.9845
2024-03-12T01:08:59.292Z,20.9886
2024-03-12T01:10:01.180Z,20.9791
2024-03-12T01:11:03.021Z,20.9849
2024-03-12T01:12:04.788Z,20.9890
2024-03-12T01:13:06.639Z,20.9793
2024-03-12T01:14:08.429Z,20.9861
2024-03-12T01:15:10.292Z,20.9832
2024-03-12T01:16:12.100Z,20.9908
2024-03-12T01:17:13.954Z,20.9949
2024-03-12T01:18:15.824Z,20.9968
2024-03-12T01:19:17.635Z,20.9937
2024-03-12T01:20:19.444Z,20.9990
2024-03-12T01:21:21.286Z,20.9974
2024-03-12T01:22:23.106Z,20.9943
2024-03-12T01:23:24.975Z,20.9958
2024-03-12T01:24:26.797Z,20.9993
2024-03-12T01:25:28.639Z,20.9921
2024-03-12T01:26:30.461Z,20.9990
2024-03-12T01:27:32.310Z,21.0027
2024-03-12T01:28:34.108Z,20.9976
2024-03-12T01:29:35.989Z,21.0038
2024-03-12T01:30:38.441Z,21.0054
2024-03-12T01:31:39.649Z,21.0112
2024-03-12T01:32:41.461Z,21.0103
2024-03-12T01:33:43.384Z,21.0036
2024-03-12T01:34:45.118Z,21.0071
2024-03-12T01:35:46.976Z,21.0095
2024-03-12T01:36:48.820Z,21.0093
2024-03-12T01:37:50.643Z,21.0188
2024-03-12T01:38:52.458Z,21.0099
2024-03-12T01:39:54.303Z,21.0122
2024-03-12T01:40:56.117Z,21.0093
2024-03-12T01:41:57.974Z,21.0208
2024-03-12T01:42:59.825Z,21.0112
2024-03-12T01:44:01.623Z,21.0151
2024-03-12T01:45:03.424Z,21.0099
2024-03-12T01:46:05.427Z,21.0118
2024-03-12T01:47:07.108Z,21.0130
2024-03-12T01:48:10.327Z,21.0163
2024-03-12T01:49:10.856Z,21.0165
2024-03-12T01:50:12.616Z,21.0194
2024-03-12T01:51:14.429Z,21.0231
2024-03-12T01:52:16.272Z,21.0194
2024-03-12T01:53:18.111Z,21.0198
2024-03-12T01:54:19.952Z,21.0233
2024-03-12T01:55:21.775Z,21.0235
2024-03-12T01:56:23.624Z,21.0194
2024-03-12T01:57:25.479Z,21.0237
2024-03-12T01:58:27.288Z,21.0208
2024-03-12T01:59:29.120Z,21.0169
2024-03-12T02:00:30.986Z,21.0151
2024-03-12T02:01:32.872Z,21.0221
2024-03-12T02:02:34.653Z,21.0118
2024-03-12T02:03:36.473Z,21.0181
2024-03-12T02:04:38.332Z,21.0163
2024-03-12T02:05:40.130Z,21.0140
2024-03-12T02:06:41.994Z,21.0221
2024-03-12T02:07:43.793Z,21.0266
2024-03-12T02:08:45.708Z,21.0233
2024-03-12T02:09:47.495Z,21.0247
2024-03-12T02:10:49.329Z,21.0214
2024-03-12T02:11:51.138Z,21.0206
2024-03-12T02:12:53.084Z,21.0198
2024-03-12T02:13:54.812Z,21.0264
2024-03-12T02:14:56.696Z,21.0216
2024-03-12T02:15:58.521Z,21.0243
2024-03-12T02:17:00.322Z,21.0239
2024-03-12T02:18:02.177Z,21.0233
2024-03-12T02:19:04.017Z,21.0163
2024-03-12T02:20:05.825Z,21.0251
2024-03-12T02:21:07.670Z,21.0184
2024-03-12T02:22:09.576Z,21.0270
2024-03-12T02:23:11.334Z,21.0307
2024-03-12T02:24:13.148Z,21.0231
2024-03-12T02:25:15.002Z,21.0266
2024-03-12T02:26:16.823Z,21.0214
2024-03-12T02:27:18.688Z,21.0229
2024-03-12T02:28:20.481Z,21.0216
2024-03-12T02:29:22.341Z,21.0167
2024-03-12T02:30:24.360Z,21.0223
2024-03-12T02:31:26.044Z,21.0173
2024-03-12T02:32:27.876Z,21.0140
2024-03-12T02:33:29.708Z,21.0169
2024-03-12T02:34:31.547Z,21.0145
2024-03-12T02:35:33.403Z,21.0151
2024-03-12T02:36:35.183Z,21.0153
2024-03-12T02:37:37.025Z,21.0181
2024-03-12T02:38:38.832Z,21.0196
2024-03-12T02:39:40.748Z,21.0221
2024-03-12T02:40:42.495Z,21.0157
2024-03-12T02:41:44.356Z,21.0138
2024-03-12T02:42:46.374Z,21.0142
2024-03-12T02:43:48.034Z,21.0212
2024-03-12T02:44:49.851Z,21.0149
2024-03-12T02:45:51.772Z,21.0179
2024-03-12T02:46:53.496Z,21.0177
2024-03-12T02:47:55.448Z,21.0208
2024-03-12T02:48:57.199Z,21.0208
2024-03-12T02:49:59.042Z,21.0134
2024-03-12T02:51:00.875Z,21.0157
2024-03-12T02:52:02.924Z,21.0210
2024-03-12T02:53:04.517Z,21.0161
2024-03-12T02:54:06.494Z,21.0210
2024-03-12T02:55:08.394Z,21.0186
2024-03-12T02:56:10.029Z,21.0122
2024-03-12T02:57:11.835Z,21.0173
2024-03-12T02:58:13.716Z,21.0181
2024-03-12T02:59:15.505Z,21.0179
2024-03-12T03:00:17.349Z,21.0073
2024-03-12T03:01:19.347Z,21.0046
2024-03-12T03:02:21.100Z,21.0056
2024-03-12T03:03:22.978Z,21.0097
2024-03-12T03:04:24.755Z,21.0097
2024-03-12T03:05:26.572Z,21.0042
2024-03-12T03:06:28.452Z,21.0081
2024-03-12T03:07:30.264Z,21.0029
2024-03-12T03:08:32.118Z,21.0036
2024-03-12T03:09:34.022Z,21.0015
2024-03-12T03:10:35.763Z,20.9978
2024-03-12T03:11:37.637Z,21.0054
2024-03-12T03:12:39.473Z,21.0108
2024-03-12T03:13:41.238Z,21.0029
2024-03-12T03:14:43.109Z,20.9997
2024-03-12T03:15:44.947Z,20.9993
2024-03-12T03:16:46.754Z,20.9966
2024-03-12T03:17:48.595Z,20.9988
2024-03-12T03:18:50.443Z,20.9980
2024-03-12T03:19:52.245Z,20.9925
2024-03-12T03:20:54.104Z,20.9958
2024-03-12T03:21:55.981Z,21.0009
2024-03-12T03:22:57.765Z,20.9949
2024-03-12T03:23:59.573Z,21.0003
2024-03-12T03:25:01.544Z,20.9966
2024-03-12T03:26:03.262Z,20.9993
2024-03-12T03:27:05.094Z,20.9970
2024-03-12T03:28:06.940Z,20.9956
2024-03-12T03:29:08.753Z,20.9908
2024-03-12T03:30:10.568Z,20.9917
2024-03-12T03:31:12.503Z,20.9880
2024-03-12T03:32:14.269Z,20.9943
2024-03-12T03:33:16.147Z,20.9894
2024-03-12T03:34:17.987Z,20.9849
2024-03-12T03:35:20.019Z,20.9861
2024-03-12T03:36:21.605Z,20.9824
2024-03-12T03:37:23.425Z,20.9867
2024-03-12T03:38:25.253Z,20.9898
2024-03-12T03:39:27.146Z,20.9853
2024-03-12T03:40:28.955Z,20.9867
2024-03-12T03:41:30.756Z,20.9830
2024-03-12T03:42:32.616Z,20.9779
2024-03-12T03:43:34.409Z,20.9736
2024-03-12T03:44:36.273Z,20.9793
2024-03-12T03:45:38.084Z,20.9789
2024-03-12T03:46:39.914Z,20.9767
2024-03-12T03:47:41.883Z,20.9740
2024-03-12T03:48:43.608Z,20.9795
2024-03-12T03:49:45.407Z,20.9748
2024-03-12T03:50:47.272Z,20.9801
2024-03-12T03:51:49.099Z,20.9707
2024-03-12T03:52:50.930Z,20.9717
2024-03-12T03:53:52.739Z,20.9754
2024-03-12T03:54:54.631Z,20.9693
2024-03-12T03:55:56.416Z,20.9713
2024-03-12T03:56:58.290Z,20.9693
2024-03-12T03:58:00.169Z,20.9686
2024-03-12T03:59:01.942Z,20.9701
2024-03-12T04:00:03.742Z,20.9660
2024-03-12T04:01:05.704Z,20.9637
2024-03-12T04:02:07.390Z,20.9637
2024-03-12T04:03:09.243Z,20.9557
2024-03-12T04:04:11.119Z,20.9596
2024-03-12T04:05:12.898Z,20.9625
2024-03-12T04:06:14.713Z,20.9580
2024-03-12T04:07:16.600Z,20.9545
2024-03-12T04:08:18.381Z,20.9497
2024-03-12T04:09:20.234Z,20.9553
2024-03-12T04:10:22.036Z,20.9555
2024-03-12T04:11:23.969Z,20.9522
2024-03-12T04:12:25.733Z,20.9522
2024-03-12T04:13:27.549Z,20.9578
2024-03-12T04:14:29.368Z,20.9471
2024-03-12T04:15:31.248Z,20.9483
2024-03-12T04:16:33.027Z,20.9504
2024-03-12T04:17:34.923Z,20.9434
2024-03-12T04:18:37.673Z,20.9419
2024-03-12T04:19:38.542Z,20.9495
2024-03-12T04:20:40.369Z,20.9458
2024-03-12T04:21:42.305Z,20.9465
2024-03-12T04:22:44.028Z,20.9481
2024-03-12T04:23:45.883Z,20.9393
2024-03-12T04:24:47.776Z,20.9419
2024-03-12T04:25:49.546Z,20.9440
2024-03-12T04:26:51.348Z,20.9411
2024-03-12T04:27:53.213Z,20.9376
2024-03-12T04:28:55.037Z,20.9358
2024-03-12T04:29:56.870Z,20.9380
2024-03-12T04:30:58.706Z,20.9329
2024-03-12T04:32:00.548Z,20.9272
2024-03-12T04:33:02.412Z,20.9280
2024-03-12T04:34:04.298Z,20.9233
2024-03-12T04:35:06.054Z,20.9220
2024-03-12T04:36:07.857Z,20.9208
2024-03-12T04:37:09.768Z,20.9241
2024-03-12T04:38:13.844Z,20.9191
2024-03-12T04:39:13.429Z,20.9259
2024-03-12T04:40:15.393Z,20.9265
2024-03-12T04:41:16.998Z,20.9216
2024-03-12T04:42:18.829Z,20.9230
2024-03-12T04:43:20.714Z,20.9218
2024-03-12T04:44:22.504Z,20.9171
2024-03-12T04:45:24.316Z,20.9148
2024-03-12T04:46:26.163Z,20.9189
2024-03-12T04:47:28.104Z,20.9144
2024-03-12T04:48:29.880Z,20.9113
2024-03-12T04:49:31.641Z,20.9078
2024-03-12T04:50:33.506Z,20.9109
2024-03-12T04:51:35.350Z,20.9041
2024-03-12T04:52:37.180Z,20.9062
2024-03-12T04:53:39.003Z,20.9029
2024-03-12T04:54:40.876Z,20.9015
2024-03-12T04:55:42.661Z,20.9085
2024-03-12T04:56:44.506Z,20.9011
2024-03-12T04:57:46.343Z,20.8998
2024-03-12T04:58:48.155Z,20.9052
2024-03-12T04:59:49.980Z,20.8947
2024-03-12T05:00:51.913Z,20.9011
2024-03-12T05:01:53.811Z,20.8990
2024-03-12T05:02:55.495Z,20.9004
2024-03-12T05:03:59.706Z,20.8914
2024-03-12T05:04:59.163Z,20.8871
2024-03-12T05:06:00.971Z,20.8877
2024-03-12T05:07:02.886Z,20.8935
2024-03-12T05:08:04.644Z,20.8922
2024-03-12T05:09:06.507Z,20.8863
2024-03-12T05:10:08.439Z,20.8840
2024-03-12T05:11:10.230Z,20.8896
2024-03-12T05:12:11.952Z,20.8873
2024-03-12T05:13:13.835Z,20.8910
2024-03-12T05:14:15.628Z,20.8816
2024-03-12T05:15:17.509Z,20.8863
2024-03-12T05:16:20.445Z,20.8822
2024-03-12T05:17:21.134Z,20.8801
2024-03-12T05:18:22.951Z,20.8809
2024-03-12T05:19:24.833Z,20.8781
2024-03-12T05:20:26.732Z,20.8696
2024-03-12T05:21:31.540Z,20.8698
2024-03-12T05:22:30.299Z,20.8748
2024-03-12T05:23:32.149Z,20.8668
2024-03-12T05:24:34.046Z,20.8762
2024-03-12T05:25:35.829Z,20.8719
2024-03-12T05:26:37.790Z,20.8659
2024-03-12T05:27:39.730Z,20.8618
2024-03-12T05:28:41.323Z,20.8602
2024-03-12T05:29:43.177Z,20.8694
2024-03-12T05:30:45.014Z,20.8655
2024-03-12T05:31:46.870Z,20.8723
2024-03-12T05:32:49.056Z,20.8647
2024-03-12T05:33:50.587Z,20.8701
2024-03-12T05:34:52.335Z,20.8643
2024-03-12T05:35:54.192Z,20.8703
2024-03-12T05:36:56.027Z,20.8604
2024-03-12T05:37:57.854Z,20.8670
2024-03-12T05:38:59.694Z,20.8690
2024-03-12T05:40:01.719Z,20.8633
2024-03-12T05:41:03.341Z,20.8627
2024-03-12T05:42:05.209Z,20.8616
2024-03-12T05:43:07.006Z,20.8711
2024-03-12T05:44:08.851Z,20.8684
2024-03-12T05:45:10.676Z,20.8643
2024-03-12T05:46:12.619Z,20.8674
2024-03-12T05:47:14.341Z,20.8668
2024-03-12T05:48:16.179Z,20.8696
2024-03-12T05:49:18.104Z,20.8733
2024-03-12T05:50:19.856Z,20.8735
2024-03-12T05:51:21.743Z,20.8758
2024-03-12T05:52:23.529Z,20.8748
2024-03-12T05:53:25.342Z,20.8705
2024-03-12T05:54:27.221Z,20.8701
2024-03-12T05:55:29.014Z,20.8717
2024-03-12T05:56:30.851Z,20.8711
2024-03-12T05:57:32.721Z,20.8723
2024-03-12T05:58:34.508Z,20.8686
2024-03-12T05:59:36.341Z,20.8735
2024-03-12T06:00:38.194Z,20.8777
2024-03-12T06:01:40.166Z,20.8774
2024-03-12T06:02:41.822Z,20.8768
2024-03-12T06:03:43.686Z,20.8764
2024-03-12T06:04:45.489Z,20.8770
2024-03-12T06:05:47.313Z,20.8840
2024-03-12T06:06:49.182Z,20.8883
2024-03-12T06:07:50.977Z,20.8873
2024-03-12T06:08:52.859Z,20.8877
2024-03-12T06:09:54.700Z,20.8926
2024-03-12T06:10:56.467Z,20.8965
2024-03-12T06:11:58.314Z,20.8968
2024-03-12T06:13:00.181Z,20.8986
2024-03-12T06:14:04.360Z,20.9004
2024-03-12T06:15:03.789Z,20.8955
2024-03-12T06:16:05.674Z,20.8963
2024-03-12T06:17:07.462Z,20.8961
2024-03-12T06:18:09.289Z,20.8970
2024-03-12T06:19:11.280Z,20.8974
2024-03-12T06:20:12.931Z,20.8953
2024-03-12T06:21:14.767Z,20.9048
2024-03-12T06:22:16.617Z,20.8959
2024-03-12T06:23:18.419Z,20.8957
2024-03-12T06:24:20.255Z,20.8982
2024-03-12T06:25:22.156Z,20.8972
2024-03-12T06:26:23.946Z,20.9017
2024-03-12T06:27:25.922Z,20.9048
2024-03-12T06:28:27.569Z,20.9021
2024-03-12T06:29:29.433Z,20.9009
2024-03-12T06:30:31.282Z,20.9029
2024-03-12T06:31:33.111Z,20.9007
2024-03-12T06:32:34.952Z,20.9087
2024-03-12T06:33:36.919Z,20.9081
2024-03-12T06:34:38.583Z,20.9046
2024-03-12T06:35:40.445Z,20.9111
2024-03-12T06:36:42.296Z,20.9087
2024-03-12T06:37:44.112Z,20.9130
2024-03-12T06:38:45.919Z,20.9126
2024-03-12T06:39:47.942Z,20.9122
2024-03-12T06:40:49.679Z,20.9076
2024-03-12T06:41:51.455Z,20.9093
2024-03-12T06:42:53.326Z,20.9189
2024-03-12T06:43:55.116Z,20.9224
2024-03-12T06:44:56.951Z,20.9233
2024-03-12T06:45:58.816Z,20.9210
2024-03-12T06:47:00.612Z,20.9247
2024-03-12T06:48:02.494Z,20.9294
2024-03-12T06:49:04.314Z,20.9309
2024-03-12T06:50:08.848Z,20.9333
2024-03-12T06:51:07.954Z,20.9387
2024-03-12T06:52:09.940Z,20.9463
2024-03-12T06:53:11.594Z,20.9522
2024-03-12T06:54:13.459Z,20.9471
2024-03-12T06:55:17.068Z,20.9518
2024-03-12T06:56:17.126Z,20.9477
2024-03-12T06:57:18.932Z,20.9576
2024-03-12T06:58:21.021Z,20.9578
2024-03-12T06:59:22.602Z,20.9602
2024-03-12T07:00:24.474Z,20.9582
2024-03-12T07:01:26.342Z,20.9602
2024-03-12T07:02:28.143Z,20.9627
2024-03-12T07:03:29.983Z,20.9625
2024-03-12T07:04:31.856Z,20.9594
2024-03-12T07:05:33.709Z,20.8411
2024-03-12T07:06:35.543Z,20.4707
2024-03-12T07:07:37.358Z,20.1556
2024-03-12T07:08:39.193Z,19.9020
2024-03-12T07:09:41.030Z,19.8069
2024-03-12T07:10:42.894Z,19.7457
2024-03-12T07:11:44.688Z,19.5086
2024-03-12T07:12:46.543Z,19.3597
2024-03-12T07:13:48.362Z,19.2851
2024-03-12T07:14:50.201Z,19.3293
2024-03-12T07:15:52.104Z,19.4273
2024-03-12T07:16:53.875Z,19.5345
2024-03-12T07:17:55.782Z,19.6339
2024-03-12T07:18:57.561Z,19.7237
2024-03-12T07:19:59.385Z,19.7968
2024-03-12T07:21:01.225Z,19.8707
2024-03-12T07:22:03.122Z,19.9163
2024-03-12T07:23:04.886Z,19.9689
2024-03-12T07:24:06.690Z,20.0028
2024-03-12T07:25:08.696Z,20.0301
2024-03-12T07:26:10.361Z,20.0688
2024-03-12T07:27:12.222Z,20.1063
2024-03-12T07:28:14.336Z,20.1367
2024-03-12T07:29:15.897Z,20.1600
2024-03-12T07:30:17.718Z,20.1795
2024-03-12T07:31:19.647Z,20.1975
2024-03-12T07:32:21.381Z,20.2185
2024-03-12T07:33:23.275Z,20.2277
2024-03-12T07:34:25.172Z,20.2456
2024-03-12T07:35:26.902Z,20.2512
2024-03-12T07:36:28.749Z,20.2620
2024-03-12T07:37:30.697Z,20.2789
2024-03-12T07:38:32.442Z,20.2957
2024-03-12T07:39:34.264Z,20.3095
2024-03-12T07:40:36.080Z,20.3116
2024-03-12T07:41:37.920Z,20.3309
2024-03-12T07:42:39.775Z,20.3378
2024-03-12T07:43:41.620Z,20.3514
2024-03-12T07:44:43.427Z,20.3500
2024-03-12T07:45:45.368Z,20.3584
2024-03-12T07:46:47.081Z,20.3740
2024-03-12T07:47:48.945Z,20.3824
2024-03-12T07:48:50.787Z,20.3988
2024-03-12T07:49:52.614Z,20.4032
2024-03-12T07:50:54.521Z,20.4136
2024-03-12T07:51:56.363Z,20.4260
2024-03-12T07:52:58.105Z,20.4264
2024-03-12T07:53:59.956Z,20.4286
2024-03-12T07:55:01.849Z,20.4412
2024-03-12T07:56:03.622Z,20.4537
2024-03-12T07:57:05.482Z,20.4650
2024-03-12T07:58:07.387Z,20.4716
2024-03-12T07:59:09.138Z,20.4822
2024-03-12T08:00:10.988Z,20.4874
2024-03-12T08:01:12.949Z,20.4972
2024-03-12T08:02:14.641Z,20.5026
2024-03-12T08:03:16.496Z,20.5124
2024-03-12T08:04:18.376Z,20.5305
2024-03-12T08:05:20.207Z,20.5278
2024-03-12T08:06:21.990Z,20.5391
2024-03-12T08:07:23.860Z,20.5424
2024-03-12T08:08:25.657Z,20.5570
2024-03-12T08:09:27.568Z,20.5656
2024-03-12T08:10:29.365Z,20.5642
2024-03-12T08:11:31.213Z,20.5714
2024-03-12T08:12:33.022Z,20.5734
2024-03-12T08:13:34.849Z,20.5817
2024-03-12T08:14:36.672Z,20.5893
2024-03-12T08:15:38.553Z,20.6018
2024-03-12T08:16:40.380Z,20.6077
2024-03-12T08:17:44.097Z,20.6034
2024-03-12T08:18:44.073Z,20.6162
2024-03-12T08:19:46.081Z,20.6100
2024-03-12T08:20:47.694Z,20.6308
2024-03-12T08:21:49.550Z,20.6394
2024-03-12T08:22:51.414Z,20.6505
2024-03-12T08:23:53.198Z,20.6644
2024-03-12T08:24:55.066Z,20.6644
2024-03-12T08:26:00.470Z,20.6741
2024-03-12T08:26:58.736Z,20.6821
2024-03-12T08:28:00.648Z,20.6895
2024-03-12T08:29:02.363Z,20.6934
2024-03-12T08:30:04.201Z,20.7119
2024-03-12T08:31:11.555Z,20.7191
2024-03-12T08:32:08.096Z,20.7246
2024-03-12T08:33:09.728Z,20.7287
2024-03-12T08:34:11.588Z,20.7291
2024-03-12T08:35:13.355Z,20.7277
2024-03-12T08:36:15.221Z,20.7443
2024-03-12T08:37:17.104Z,20.7322
2024-03-12T08:38:18.883Z,20.7369
2024-03-12T08:39:20.704Z,20.7443
2024-03-12T08:40:22.601Z,20.7349
2024-03-12T08:41:24.359Z,20.7298
2024-03-12T08:42:26.213Z,20.7372
2024-03-12T08:43:28.049Z,20.7248
2024-03-12T08:44:29.910Z,20.7318
2024-03-12T08:45:31.700Z,20.7240
2024-03-12T08:46:33.541Z,20.7172
2024-03-12T08:47:35.379Z,20.7207
2024-03-12T08:48:37.280Z,20.7359
2024-03-12T08:49:39.061Z,20.7337
2024-03-12T08:50:40.902Z,20.7320
2024-03-12T08:51:42.728Z,20.7330
2024-03-12T08:52:44.545Z,20.7349
2024-03-12T08:53:46.381Z,20.7484
2024-03-12T08:54:48.322Z,20.7505
2024-03-12T08:55:50.034Z,20.7400
2024-03-12T08:56:51.898Z,20.7448
2024-03-12T08:57:53.738Z,20.7499
2024-03-12T08:58:55.556Z,20.7501
2024-03-12T08:59:57.382Z,20.7554
2024-03-12T09:00:59.282Z,20.7579
2024-03-12T09:02:01.452Z,20.7626
2024-03-12T09:03:02.931Z,20.7639
2024-03-12T09:04:04.939Z,20.7585
2024-03-12T09:05:06.573Z,20.7606
2024-03-12T09:06:08.392Z,20.7655
2024-03-12T09:07:10.332Z,20.7686
2024-03-12T09:08:12.031Z,20.7815
2024-03-12T09:09:13.886Z,20.7770
2024-03-12T09:10:15.834Z,20.7838
2024-03-12T09:11:17.595Z,20.7916
2024-03-12T09:12:19.369Z,20.7992
2024-03-12T09:13:21.231Z,20.8043
2024-03-12T09:14:23.032Z,20.8138
2024-03-12T09:15:26.250Z,20.8113
2024-03-12T09:16:26.731Z,20.8136
2024-03-12T09:17:28.672Z,20.8121
2024-03-12T09:18:30.418Z,20.8185
2024-03-12T09:19:32.287Z,20.8212
2024-03-12T09:20:34.011Z,20.8212
2024-03-12T09:21:35.992Z,20.8298
2024-03-12T09:22:37.693Z,20.8316
2024-03-12T09:23:45.406Z,20.8386
2024-03-12T09:24:41.373Z,20.8399
2024-03-12T09:25:43.202Z,20.8485
2024-03-12T09:26:45.017Z,20.8509
2024-03-12T09:27:46.879Z,20.8532
2024-03-12T09:28:48.650Z,20.8567
2024-03-12T09:29:50.599Z,20.8600
2024-03-12T09:30:52.385Z,20.8610
2024-03-12T09:31:54.177Z,20.8672
2024-03-12T09:32:56.033Z,20.8661
2024-03-12T09:33:58.084Z,20.8717
2024-03-12T09:34:59.658Z,20.8824
2024-03-12T09:36:01.562Z,20.8811
2024-03-12T09:37:03.370Z,20.8908
2024-03-12T09:38:05.174Z,20.8955
2024-03-12T09:39:06.985Z,20.8982
2024-03-12T09:40:08.932Z,20.9025
2024-03-12T09:41:10.650Z,20.9111
2024-03-12T09:42:12.534Z,20.9132
2024-03-12T09:43:14.415Z,20.9187
2024-03-12T09:44:16.251Z,20.9269
2024-03-12T09:45:18.026Z,20.9294
2024-03-12T09:46:19.899Z,20.9364
2024-03-12T09:47:21.665Z,20.9397
2024-03-12T09:48:23.530Z,20.9432
2024-03-12T09:49:25.344Z,20.9578
2024-03-12T09:50:27.211Z,20.9565
2024-03-12T09:51:29.017Z,20.9559
2024-03-12T09:52:30.874Z,20.9567
2024-03-12T09:53:32.672Z,20.9619
2024-03-12T09:54:34.564Z,20.9715
2024-03-12T09:55:36.434Z,20.9670
2024-03-12T09:56:38.194Z,20.9723
2024-03-12T09:57:40.075Z,20.9660
2024-03-12T09:58:41.867Z,20.9785
2024-03-12T09:59:43.677Z,20.9771
2024-03-12T10:00:45.537Z,20.9847
2024-03-12T10:01:48.105Z,20.9925
2024-03-12T10:02:49.204Z,20.9933
2024-03-12T10:03:51.081Z,20.9951
2024-03-12T10:04:52.888Z,21.0017
2024-03-12T10:05:54.683Z,21.0042
2024-03-12T10:06:56.557Z,21.0046
2024-03-12T10:07:58.347Z,21.0062
2024-03-12T10:09:00.219Z,21.0069
2024-03-12T10:10:02.131Z,21.0095
2024-03-12T10:11:03.948Z,21.0091
2024-03-12T10:12:05.690Z,21.0085
2024-03-12T10:13:07.618Z,21.0134
2024-03-12T10:14:09.383Z,21.0210
2024-03-12T10:15:11.316Z,21.0241
2024-03-12T10:16:13.128Z,21.0237
2024-03-12T10:17:14.886Z,21.0212
2024-03-12T10:18:16.702Z,21.0276
2024-03-12T10:19:18.601Z,21.0188
2024-03-12T10:20:20.363Z,21.0292
2024-03-12T10:21:22.220Z,21.0167
2024-03-12T10:22:24.121Z,21.0204
2024-03-12T10:23:25.896Z,21.0101
2024-03-12T10:24:27.694Z,21.0005
2024-03-12T10:25:29.574Z,20.9935
2024-03-12T10:26:31.366Z,21.0054
2024-03-12T10:27:33.277Z,20.9919
2024-03-12T10:28:35.065Z,20.9951
2024-03-12T10:29:36.889Z,20.9925
2024-03-12T10:30:38.756Z,20.9972
2024-03-12T10:31:40.554Z,21.0058
2024-03-12T10:32:42.386Z,21.0007
2024-03-12T10:33:44.340Z,21.0044
2024-03-12T10:34:46.062Z,21.0116
2024-03-12T10:35:47.896Z,21.0060
2024-03-12T10:36:49.738Z,21.0114
2024-03-12T10:37:51.558Z,21.0134
2024-03-12T10:38:53.409Z,21.0108
2024-03-12T10:39:55.235Z,21.0237
2024-03-12T10:40:57.166Z,21.0247
2024-03-12T10:41:58.882Z,21.0253
2024-03-12T10:43:00.827Z,21.0307
2024-03-12T10:44:04.815Z,21.0266
2024-03-12T10:45:04.390Z,21.0399
2024-03-12T10:46:06.299Z,21.0473
2024-03-12T10:47:08.050Z,21.0535
2024-03-12T10:48:09.906Z,21.0625
2024-03-12T10:49:11.765Z,21.0683
2024-03-12T10:50:13.704Z,21.0713
2024-03-12T10:51:15.368Z,21.0798
2024-03-12T10:52:17.325Z,21.0806
2024-03-12T10:53:19.038Z,21.0874
2024-03-12T10:54:20.898Z,21.0968
2024-03-12T10:55:22.731Z,21.0995
2024-03-12T10:56:24.607Z,21.1046
2024-03-12T10:57:26.364Z,21.1149
2024-03-12T10:58:28.206Z,21.1305
2024-03-12T10:59:30.042Z,21.1414
2024-03-12T11:00:32.007Z,21.1461
2024-03-12T11:01:33.806Z,21.1496
2024-03-12T11:02:35.534Z,21.1560
2024-03-12T11:03:37.390Z,21.1576
2024-03-12T11:04:39.208Z,21.1597
2024-03-12T11:05:41.018Z,21.1701
2024-03-12T11:06:42.889Z,21.1701
2024-03-12T11:07:44.699Z,21.1685
2024-03-12T11:08:46.607Z,21.1685
2024-03-12T11:09:48.418Z,21.1623
2024-03-12T11:10:50.285Z,21.1662
2024-03-12T11:11:52.098Z,21.1656
2024-03-12T11:12:53.962Z,21.1607
2024-03-12T11:13:55.724Z,21.1589
2024-03-12T11:14:57.592Z,21.1523
2024-03-12T11:15:59.414Z,21.1611
2024-03-12T11:17:01.237Z,21.1523
2024-03-12T11:18:03.121Z,21.1498
2024-03-12T11:19:04.957Z,21.1461
2024-03-12T11:20:06.717Z,21.1484
2024-03-12T11:21:08.575Z,21.1412
2024-03-12T11:22:10.392Z,21.1455
2024-03-12T11:23:12.348Z,21.1379
2024-03-12T11:24:14.067Z,21.1379
2024-03-12T11:25:15.949Z,21.1317
2024-03-12T11:26:17.694Z,21.1348
2024-03-12T11:27:19.555Z,21.1389
2024-03-12T11:28:21.373Z,21.1315
2024-03-12T11:29:23.226Z,21.1319
2024-03-12T11:30:25.110Z,21.1324
2024-03-12T11:31:26.888Z,21.1367
2024-03-12T11:32:28.707Z,21.1406
2024-03-12T11:33:30.561Z,21.1513
2024-03-12T11:34:32.349Z,21.1580
2024-03-12T11:35:34.220Z,21.1527
2024-03-12T11:36:36.083Z,21.1533
2024-03-12T11:37:37.863Z,21.1580
2024-03-12T11:38:39.678Z,21.1667
2024-03-12T11:39:41.639Z,21.1613
2024-03-12T11:40:43.374Z,21.1640
2024-03-12T11:41:45.203Z,21.1765
2024-03-12T11:42:47.158Z,21.1804
2024-03-12T11:43:48.984Z,21.1884
2024-03-12T11:44:51.010Z,21.1905
2024-03-12T11:45:52.579Z,21.1913
2024-03-12T11:46:54.374Z,21.1895
2024-03-12T11:47:56.261Z,21.1886
2024-03-12T11:48:58.055Z,21.1854
2024-03-12T11:50:03.077Z,21.1841
2024-03-12T11:51:01.705Z,21.1907
2024-03-12T11:52:03.603Z,21.1979
2024-03-12T11:53:05.369Z,21.1932
2024-03-12T11:54:07.194Z,21.1932
2024-03-12T11:55:09.139Z,21.1921
2024-03-12T11:56:10.868Z,21.1987
2024-03-12T11:57:12.665Z,21.2010
2024-03-12T11:58:14.551Z,21.2032
2024-03-12T11:59:20.056Z,21.2032
2024-03-12T12:00:18.197Z,21.2110
2024-03-12T12:01:20.166Z,21.2038
2024-03-12T12:02:22.105Z,21.2065
2024-03-12T12:03:23.658Z,21.2022
2024-03-12T12:04:25.581Z,21.2090
2024-03-12T12:05:27.320Z,21.2040
2024-03-12T12:06:29.286Z,21.2098
2024-03-12T12:07:30.996Z,21.2133
2024-03-12T12:08:35.766Z,21.2178
2024-03-12T12:09:34.705Z,21.2199
2024-03-12T12:10:36.491Z,21.2170
2024-03-12T12:11:39.118Z,21.2137
2024-03-12T12:12:40.178Z,21.2127
2024-03-12T12:13:41.994Z,21.2116
2024-03-12T12:14:43.829Z,21.2145
2024-03-12T12:15:45.656Z,21.2114
2024-03-12T12:16:48.843Z,21.2012
2024-03-12T12:17:49.307Z,21.2071
2024-03-12T12:18:51.163Z,21.2020
2024-03-12T12:19:53.037Z,21.2081
2024-03-12T12:20:54.796Z,21.2024
2024-03-12T12:21:56.653Z,21.1932
2024-03-12T12:22:58.472Z,21.1934
2024-03-12T12:24:00.559Z,21.2014
2024-03-12T12:25:02.195Z,21.2065
2024-03-12T12:26:04.002Z,21.2164
2024-03-12T12:27:05.812Z,21.2287
2024-03-12T12:28:07.724Z,21.2466